createdAt,value
2022-09-24T00:02:19.257Z,8.50
2022-09-24T00:04:46.056Z,8.50
2022-09-24T00:07:12.970Z,8.50
2022-09-24T00:09:39.655Z,8.60
2022-09-24T00:12:06.281Z,8.60
2022-09-24T00:14:33.144Z,8.60
2022-09-24T00:16:59.789Z,8.60
2022-09-24T00:19:26.628Z,8.60
2022-09-24T00:21:53.609Z,8.50
2022-09-24T00:24:38.913Z,8.50
2022-09-24T00:27:06.358Z,8.50
2022-09-24T00:29:34.364Z,8.60
2022-09-24T00:32:01.466Z,8.60
2022-09-24T00:34:28.176Z,8.60
2022-09-24T00:36:54.892Z,8.60
2022-09-24T00:39:21.483Z,8.60
2022-09-24T00:41:49.036Z,8.60
2022-09-24T00:44:35.677Z,8.60
2022-09-24T00:47:02.672Z,8.60
2022-09-24T00:49:29.396Z,8.50
2022-09-24T00:51:56.107Z,8.50
2022-09-24T00:54:25.321Z,8.50
2022-09-24T00:56:53.308Z,8.50
2022-09-24T00:59:23.861Z,8.60
2022-09-24T01:01:59.505Z,8.50
2022-09-24T01:04:27.769Z,8.50
2022-09-24T01:06:54.588Z,8.50
2022-09-24T01:09:22.132Z,8.50
2022-09-24T01:11:48.793Z,8.50
2022-09-24T01:14:34.495Z,8.50
2022-09-24T01:17:16.607Z,8.50
2022-09-24T01:20:18.847Z,8.50
2022-09-24T01:22:48.172Z,8.50
2022-09-24T01:25:30.250Z,8.50
2022-09-24T01:28:15.704Z,8.50
2022-09-24T01:30:42.908Z,8.60
2022-09-24T01:33:13.206Z,8.60
2022-09-24T01:35:51.816Z,8.50
2022-09-24T01:38:21.001Z,8.50
2022-09-24T01:40:49.077Z,8.60
2022-09-24T01:43:16.937Z,8.60
2022-09-24T01:45:43.702Z,8.60
2022-09-24T01:48:10.424Z,8.60
2022-09-24T01:50:50.261Z,8.70
2022-09-24T01:53:18.476Z,8.60
2022-09-24T01:55:50.316Z,8.70
2022-09-24T01:58:33.427Z,8.60
2022-09-24T02:01:06.040Z,8.60
2022-09-24T02:03:36.039Z,8.50
2022-09-24T02:06:09.047Z,8.50
2022-09-24T02:08:40.687Z,8.50
2022-09-24T02:11:16.451Z,8.50
2022-09-24T02:13:52.345Z,8.60
2022-09-24T02:16:21.945Z,8.50
2022-09-24T02:18:51.478Z,8.60
2022-09-24T02:21:19.544Z,8.60
2022-09-24T02:23:51.045Z,8.60
2022-09-24T02:26:17.690Z,8.60
2022-09-24T02:28:45.615Z,8.60
2022-09-24T02:31:17.976Z,8.60
2022-09-24T02:34:05.342Z,8.70
2022-09-24T02:36:32.140Z,8.70
2022-09-24T02:38:59.209Z,8.80
2022-09-24T02:41:26.022Z,8.80
2022-09-24T02:43:52.674Z,8.80
2022-09-24T02:46:19.682Z,8.80
2022-09-24T02:48:46.395Z,8.80
2022-09-24T02:51:13.440Z,8.80
2022-09-24T02:53:40.194Z,8.80
2022-09-24T02:56:08.157Z,8.70
2022-09-24T02:58:37.398Z,8.70
2022-09-24T03:01:05.251Z,8.70
2022-09-24T03:03:32.601Z,8.70
2022-09-24T03:05:59.599Z,8.60
2022-09-24T03:08:27.205Z,8.70
2022-09-24T03:10:56.405Z,8.70
2022-09-24T03:13:23.230Z,8.60
2022-09-24T03:15:49.922Z,8.60
2022-09-24T03:18:16.838Z,8.60
2022-09-24T03:20:43.632Z,8.50
2022-09-24T03:23:10.247Z,8.50
2022-09-24T03:25:36.922Z,8.50
2022-09-24T03:28:03.564Z,8.50
2022-09-24T03:30:49.028Z,8.50
2022-09-24T03:33:16.062Z,8.50
2022-09-24T03:35:42.770Z,8.50
2022-09-24T03:38:09.508Z,8.40
2022-09-24T03:40:36.259Z,8.40
2022-09-24T03:43:03.005Z,8.40
2022-09-24T03:45:29.657Z,8.40
2022-09-24T03:47:56.291Z,8.50
2022-09-24T03:50:22.992Z,8.50
2022-09-24T03:52:49.764Z,8.50
2022-09-24T03:55:16.429Z,8.50
2022-09-24T03:57:43.061Z,8.50
2022-09-24T04:00:10.199Z,8.60
2022-09-24T04:02:36.864Z,8.60
2022-09-24T04:05:03.602Z,8.70
2022-09-24T04:07:30.245Z,8.70
2022-09-24T04:09:56.827Z,8.70
2022-09-24T04:12:23.843Z,8.70
2022-09-24T04:14:50.489Z,8.70
2022-09-24T04:17:17.565Z,8.80
2022-09-24T04:19:44.208Z,8.80
2022-09-24T04:22:11.019Z,8.80
2022-09-24T04:24:37.726Z,8.80
2022-09-24T04:27:04.499Z,8.80
2022-09-24T04:29:31.137Z,8.80
2022-09-24T04:31:57.806Z,8.80
2022-09-24T04:34:24.468Z,8.80
2022-09-24T04:36:51.289Z,8.80
2022-09-24T04:39:17.945Z,8.70
2022-09-24T04:41:47.150Z,8.70
2022-09-24T04:44:15.298Z,8.70
2022-09-24T04:46:42.905Z,8.70
2022-09-24T04:49:10.450Z,8.60
2022-09-24T04:51:37.459Z,8.60
2022-09-24T04:54:04.266Z,8.50
2022-09-24T04:56:31.348Z,8.50
2022-09-24T04:58:58.652Z,8.50
2022-09-24T05:01:26.055Z,8.50
2022-09-24T05:03:53.624Z,8.50
2022-09-24T05:06:20.251Z,8.40
2022-09-24T05:08:46.918Z,8.40
2022-09-24T05:11:13.619Z,8.40
2022-09-24T05:13:40.242Z,8.40
2022-09-24T05:16:06.970Z,8.50
2022-09-24T05:18:33.640Z,8.50
2022-09-24T05:21:00.294Z,8.50
2022-09-24T05:23:26.943Z,8.50
2022-09-24T05:26:12.351Z,8.50
2022-09-24T05:28:40.575Z,8.50
2022-09-24T05:31:08.508Z,8.50
2022-09-24T05:33:36.175Z,8.50
2022-09-24T05:36:03.686Z,8.50
2022-09-24T05:38:30.596Z,8.60
2022-09-24T05:40:57.789Z,8.50
2022-09-24T05:43:27.666Z,8.60
2022-09-24T05:45:54.686Z,8.60
2022-09-24T05:48:21.461Z,8.60
2022-09-24T05:50:48.122Z,8.70
2022-09-24T05:53:14.856Z,8.80
2022-09-24T05:55:42.518Z,8.90
2022-09-24T05:58:10.598Z,8.90
2022-09-24T06:00:37.960Z,9.00
2022-09-24T06:03:11.106Z,9.00
2022-09-24T06:05:37.908Z,9.10
2022-09-24T06:08:05.179Z,9.10
2022-09-24T06:10:32.311Z,9.10
2022-09-24T06:12:59.191Z,9.10
2022-09-24T06:15:27.375Z,9.10
2022-09-24T06:17:54.917Z,9.10
2022-09-24T06:20:22.047Z,9.10
2022-09-24T06:22:48.905Z,9.10
2022-09-24T06:25:15.747Z,9.30
2022-09-24T06:27:42.371Z,9.50
2022-09-24T06:30:09.205Z,9.70
2022-09-24T06:32:35.852Z,9.80
2022-09-24T06:35:02.488Z,10.00
2022-09-24T06:37:29.183Z,10.10
2022-09-24T06:39:55.907Z,10.30
2022-09-24T06:42:22.588Z,10.50
2022-09-24T06:44:49.254Z,10.60
2022-09-24T06:47:15.900Z,10.80
2022-09-24T06:49:42.589Z,10.90
2022-09-24T06:52:09.344Z,11.00
2022-09-24T06:54:36.087Z,11.20
2022-09-24T06:57:04.261Z,11.20
2022-09-24T06:59:33.874Z,11.30
2022-09-24T07:02:00.551Z,11.30
2022-09-24T07:04:27.284Z,11.40
2022-09-24T07:07:12.580Z,11.50
2022-09-24T07:09:41.447Z,11.60
2022-09-24T07:12:08.883Z,11.70
2022-09-24T07:14:35.675Z,11.70
2022-09-24T07:17:02.374Z,11.80
2022-09-24T07:19:29.035Z,11.90
2022-09-24T07:21:55.691Z,12.00
2022-09-24T07:24:22.341Z,12.00
2022-09-24T07:26:49.159Z,12.20
2022-09-24T07:29:16.174Z,12.30
2022-09-24T07:31:42.820Z,12.40
2022-09-24T07:34:09.525Z,12.50
2022-09-24T07:36:36.336Z,12.60
2022-09-24T07:39:03.227Z,12.70
2022-09-24T07:41:29.910Z,12.80
2022-09-24T07:43:56.684Z,12.90
2022-09-24T07:46:24.792Z,13.00
2022-09-24T07:48:56.394Z,13.10
2022-09-24T07:51:24.218Z,13.30
2022-09-24T07:53:50.916Z,13.40
2022-09-24T07:56:17.720Z,13.40
2022-09-24T07:58:44.399Z,13.50
2022-09-24T08:01:11.165Z,13.50
2022-09-24T08:03:39.242Z,13.70
2022-09-24T08:06:06.046Z,13.80
2022-09-24T08:08:32.675Z,14.00
2022-09-24T08:11:03.849Z,14.10
2022-09-24T08:13:30.503Z,14.10
2022-09-24T08:16:00.708Z,14.10
2022-09-24T08:18:28.262Z,14.20
2022-09-24T08:20:54.943Z,14.20
2022-09-24T08:23:21.534Z,14.30
2022-09-24T08:25:48.201Z,14.30
2022-09-24T08:28:17.065Z,14.40
2022-09-24T08:30:44.323Z,14.40
2022-09-24T08:33:11.229Z,14.40
2022-09-24T08:35:40.167Z,14.50
2022-09-24T08:38:07.639Z,14.50
2022-09-24T08:40:39.362Z,14.60
2022-09-24T08:43:13.316Z,14.60
2022-09-24T08:46:05.314Z,14.70
2022-09-24T08:48:34.483Z,14.70
2022-09-24T08:51:03.255Z,14.80
2022-09-24T08:53:49.100Z,14.80
2022-09-24T08:56:20.285Z,14.90
2022-09-24T08:59:00.488Z,14.90
2022-09-24T09:01:38.163Z,15.00
2022-09-24T09:04:05.259Z,15.10
2022-09-24T09:06:40.847Z,15.10
2022-09-24T09:09:10.500Z,15.20
2022-09-24T09:11:37.830Z,15.20
2022-09-24T09:14:10.165Z,15.30
2022-09-24T09:16:36.843Z,15.40
2022-09-24T09:19:04.863Z,15.40
2022-09-24T09:21:37.484Z,15.40
2022-09-24T09:24:04.885Z,15.50
2022-09-24T09:26:31.733Z,15.60
2022-09-24T09:29:00.953Z,15.60
2022-09-24T09:31:36.819Z,15.60
2022-09-24T09:34:10.674Z,15.60
2022-09-24T09:36:55.626Z,15.60
2022-09-24T09:39:37.138Z,15.70
2022-09-24T09:42:07.231Z,15.80
2022-09-24T09:44:39.044Z,15.80
2022-09-24T09:47:11.836Z,15.80
2022-09-24T09:49:39.132Z,15.80
2022-09-24T09:52:12.565Z,15.80
2022-09-24T09:54:41.908Z,15.80
2022-09-24T09:57:12.483Z,15.90
2022-09-24T09:59:39.135Z,16.00
2022-09-24T10:02:09.947Z,15.90
2022-09-24T10:04:37.441Z,16.00
2022-09-24T10:07:05.214Z,16.00
2022-09-24T10:09:32.653Z,16.00
2022-09-24T10:12:08.987Z,16.10
2022-09-24T10:14:35.615Z,16.10
2022-09-24T10:17:05.484Z,16.10
2022-09-24T10:19:36.236Z,16.20
2022-09-24T10:22:15.507Z,16.30
2022-09-24T10:24:43.272Z,16.40
2022-09-24T10:27:11.297Z,16.50
2022-09-24T10:29:56.804Z,16.50
2022-09-24T10:32:24.479Z,16.50
2022-09-24T10:34:59.128Z,16.50
2022-09-24T10:37:26.185Z,16.50
2022-09-24T10:40:00.224Z,16.50
2022-09-24T10:42:28.846Z,16.50
2022-09-24T10:44:56.298Z,16.60
2022-09-24T10:47:22.957Z,16.60
2022-09-24T10:49:52.574Z,16.70
2022-09-24T10:52:38.280Z,16.70
2022-09-24T10:55:24.432Z,16.60
2022-09-24T10:58:09.607Z,16.60
2022-09-24T11:00:42.419Z,16.60
2022-09-24T11:03:29.714Z,16.60
2022-09-24T11:06:13.555Z,16.70
2022-09-24T11:08:46.302Z,16.70
2022-09-24T11:11:32.396Z,16.80
2022-09-24T11:14:09.057Z,17.00
2022-09-24T11:16:47.992Z,17.10
2022-09-24T11:19:14.625Z,17.20
2022-09-24T11:21:59.761Z,17.30
2022-09-24T11:24:39.283Z,17.30
2022-09-24T11:27:12.466Z,17.30
2022-09-24T11:29:59.399Z,17.30
2022-09-24T11:32:39.047Z,17.30
2022-09-24T11:35:15.392Z,17.20
2022-09-24T11:37:49.617Z,17.40
2022-09-24T11:40:28.445Z,17.40
2022-09-24T11:42:55.174Z,17.40
2022-09-24T11:45:37.707Z,17.50
2022-09-24T11:48:23.225Z,17.50
2022-09-24T11:50:57.100Z,17.50
2022-09-24T11:53:23.928Z,17.60
2022-09-24T11:55:57.022Z,17.60
2022-09-24T11:58:28.529Z,17.70
2022-09-24T12:01:24.535Z,17.70
2022-09-24T12:03:54.261Z,17.80
2022-09-24T12:06:24.410Z,17.80
2022-09-24T12:08:57.107Z,17.80
2022-09-24T12:11:31.557Z,17.60
2022-09-24T12:14:05.320Z,17.60
2022-09-24T12:16:33.685Z,17.50
2022-09-24T12:19:21.405Z,17.50
2022-09-24T12:21:49.151Z,17.40
2022-09-24T12:24:30.086Z,17.40
2022-09-24T12:26:58.827Z,17.60
2022-09-24T12:29:56.458Z,17.70
2022-09-24T12:32:47.608Z,17.70
2022-09-24T12:35:17.071Z,17.90
2022-09-24T12:37:44.379Z,17.80
2022-09-24T12:40:29.932Z,17.60
2022-09-24T12:42:58.613Z,17.40
2022-09-24T12:45:26.289Z,17.40
2022-09-24T12:47:58.050Z,17.50
2022-09-24T12:50:27.364Z,17.60
2022-09-24T12:52:57.038Z,17.60
2022-09-24T12:55:26.711Z,17.70
2022-09-24T12:58:01.256Z,17.60
2022-09-24T13:00:45.812Z,17.60
2022-09-24T13:03:31.669Z,17.40
2022-09-24T13:06:00.198Z,17.30
2022-09-24T13:08:35.472Z,17.50
2022-09-24T13:11:06.899Z,17.40
2022-09-24T13:13:35.317Z,17.30
2022-09-24T13:16:20.816Z,17.40
2022-09-24T13:18:58.478Z,17.30
2022-09-24T13:21:26.448Z,17.20
2022-09-24T13:23:53.542Z,17.10
2022-09-24T13:26:28.123Z,17.10
2022-09-24T13:28:58.249Z,17.20
2022-09-24T13:31:28.128Z,17.00
2022-09-24T13:33:58.359Z,17.00
2022-09-24T13:36:43.872Z,17.00
2022-09-24T13:39:20.379Z,17.00
2022-09-24T13:41:53.455Z,16.90
2022-09-24T13:44:26.436Z,16.90
2022-09-24T13:46:58.725Z,16.90
2022-09-24T13:49:25.871Z,17.00
2022-09-24T13:52:13.061Z,17.00
2022-09-24T13:54:49.346Z,17.00
2022-09-24T13:57:26.306Z,16.90
2022-09-24T14:00:12.647Z,16.80
2022-09-24T14:02:39.823Z,16.70
2022-09-24T14:05:08.069Z,16.70
2022-09-24T14:07:35.006Z,16.60
2022-09-24T14:10:02.481Z,16.60
2022-09-24T14:12:29.436Z,16.50
2022-09-24T14:14:58.395Z,16.50
2022-09-24T14:17:25.640Z,16.40
2022-09-24T14:19:56.694Z,16.30
2022-09-24T14:22:25.699Z,16.30
2022-09-24T14:25:00.786Z,16.30
2022-09-24T14:27:28.389Z,16.30
2022-09-24T14:30:02.944Z,16.30
2022-09-24T14:32:32.587Z,16.30
2022-09-24T14:35:00.630Z,16.30
2022-09-24T14:37:31.475Z,16.30
2022-09-24T14:40:04.839Z,16.30
2022-09-24T14:42:31.603Z,16.30
2022-09-24T14:44:59.659Z,16.30
2022-09-24T14:47:29.873Z,16.30
2022-09-24T14:49:56.739Z,16.30
2022-09-24T14:52:30.911Z,16.30
2022-09-24T14:55:03.637Z,16.20
2022-09-24T14:57:36.319Z,16.20
2022-09-24T15:00:03.803Z,16.10
2022-09-24T15:02:30.452Z,16.10
2022-09-24T15:05:05.848Z,16.10
2022-09-24T15:07:33.877Z,16.10
2022-09-24T15:10:01.522Z,16.10
2022-09-24T15:12:31.348Z,16.00
2022-09-24T15:14:58.681Z,16.00
2022-09-24T15:17:29.919Z,16.00
2022-09-24T15:19:57.929Z,16.00
2022-09-24T15:22:26.864Z,16.00
2022-09-24T15:24:58.872Z,16.00
2022-09-24T15:27:32.245Z,16.00
2022-09-24T15:30:00.034Z,16.00
2022-09-24T15:32:30.112Z,16.10
2022-09-24T15:34:56.897Z,16.20
2022-09-24T15:37:27.366Z,16.20
2022-09-24T15:39:57.510Z,16.20
2022-09-24T15:42:25.640Z,16.20
2022-09-24T15:44:54.451Z,16.20
2022-09-24T15:47:21.169Z,16.10
2022-09-24T15:49:47.979Z,16.00
2022-09-24T15:52:24.293Z,16.00
2022-09-24T15:54:51.764Z,15.90
2022-09-24T15:57:18.434Z,15.90
2022-09-24T15:59:45.167Z,15.80
2022-09-24T16:02:16.766Z,15.70
2022-09-24T16:04:43.866Z,15.60
2022-09-24T16:07:10.702Z,15.50
2022-09-24T16:09:37.338Z,15.50
2022-09-24T16:12:04.025Z,15.40
2022-09-24T16:14:30.814Z,15.40
2022-09-24T16:16:57.613Z,15.30
2022-09-24T16:19:24.314Z,15.30
2022-09-24T16:21:52.094Z,15.20
2022-09-24T16:24:18.880Z,15.20
2022-09-24T16:26:45.558Z,15.20
2022-09-24T16:29:12.345Z,15.10
2022-09-24T16:31:39.118Z,15.00
2022-09-24T16:34:05.813Z,15.00
2022-09-24T16:36:32.470Z,14.90
2022-09-24T16:39:00.138Z,14.90
2022-09-24T16:41:26.913Z,14.80
2022-09-24T16:43:56.938Z,14.80
2022-09-24T16:46:23.733Z,14.80
2022-09-24T16:48:50.574Z,14.80
2022-09-24T16:51:17.445Z,14.80
2022-09-24T16:53:48.493Z,14.80
2022-09-24T16:56:16.382Z,14.80
2022-09-24T16:58:45.039Z,14.80
2022-09-24T17:01:13.093Z,14.70
2022-09-24T17:03:39.889Z,14.80
2022-09-24T17:06:06.809Z,14.80
2022-09-24T17:08:52.807Z,14.70
2022-09-24T17:11:19.893Z,14.70
2022-09-24T17:13:49.518Z,14.70
2022-09-24T17:16:16.638Z,14.70
2022-09-24T17:18:43.412Z,14.70
2022-09-24T17:21:14.896Z,14.70
2022-09-24T17:23:41.761Z,14.60
2022-09-24T17:26:11.508Z,14.60
2022-09-24T17:28:39.631Z,14.60
2022-09-24T17:31:06.666Z,14.60
2022-09-24T17:33:48.948Z,14.60
2022-09-24T17:36:15.865Z,14.50
2022-09-24T17:38:42.597Z,14.50
2022-09-24T17:41:10.880Z,14.50
2022-09-24T17:43:37.595Z,14.50
2022-09-24T17:46:04.300Z,14.50
2022-09-24T17:48:32.839Z,14.40
2022-09-24T17:51:00.338Z,14.40
2022-09-24T17:53:30.130Z,14.40
2022-09-24T17:55:56.795Z,14.40
2022-09-24T17:58:23.766Z,14.40
2022-09-24T18:00:50.815Z,14.40
2022-09-24T18:03:17.765Z,14.40
2022-09-24T18:05:44.747Z,14.40
2022-09-24T18:08:11.744Z,14.40
2022-09-24T18:10:38.504Z,14.30
2022-09-24T18:13:05.708Z,14.30
2022-09-24T18:15:35.656Z,14.30
2022-09-24T18:18:02.558Z,14.30
2022-09-24T18:20:31.827Z,14.20
2022-09-24T18:22:58.501Z,14.20
2022-09-24T18:25:26.992Z,14.20
2022-09-24T18:27:54.453Z,14.20
2022-09-24T18:30:21.130Z,14.20
2022-09-24T18:32:47.813Z,14.10
2022-09-24T18:35:14.774Z,14.10
2022-09-24T18:37:41.421Z,14.10
2022-09-24T18:40:08.450Z,14.10
2022-09-24T18:42:35.266Z,14.10
2022-09-24T18:45:02.180Z,14.10
2022-09-24T18:47:28.847Z,14.10
2022-09-24T18:49:55.479Z,14.20
2022-09-24T18:52:22.768Z,14.10
2022-09-24T18:54:50.224Z,14.10
2022-09-24T18:57:16.941Z,14.10
2022-09-24T18:59:46.988Z,14.10
2022-09-24T19:02:14.240Z,14.10
2022-09-24T19:04:41.492Z,14.00
2022-09-24T19:07:08.532Z,14.00
2022-09-24T19:09:35.860Z,14.00
2022-09-24T19:12:08.051Z,14.00
2022-09-24T19:14:34.965Z,14.00
2022-09-24T19:17:06.552Z,14.00
2022-09-24T19:19:33.480Z,14.00
2022-09-24T19:22:00.324Z,14.00
2022-09-24T19:24:27.190Z,13.90
2022-09-24T19:26:53.871Z,13.90
2022-09-24T19:29:20.496Z,13.90
2022-09-24T19:31:48.841Z,13.90
2022-09-24T19:34:15.504Z,13.90
2022-09-24T19:36:43.913Z,13.90
2022-09-24T19:39:12.794Z,13.90
2022-09-24T19:41:39.704Z,13.90
2022-09-24T19:44:09.152Z,13.80
2022-09-24T19:46:38.481Z,13.80
2022-09-24T19:49:06.232Z,13.80
2022-09-24T19:51:33.680Z,13.80
2022-09-24T19:54:01.711Z,13.80
2022-09-24T19:56:28.832Z,13.80
2022-09-24T19:58:56.934Z,13.80
2022-09-24T20:01:25.072Z,13.80
2022-09-24T20:03:51.802Z,13.70
2022-09-24T20:06:19.950Z,13.70
2022-09-24T20:08:46.947Z,13.70
2022-09-24T20:11:19.322Z,13.70
2022-09-24T20:13:46.772Z,13.70
2022-09-24T20:16:15.398Z,13.70
2022-09-24T20:18:42.719Z,13.70
2022-09-24T20:21:12.665Z,13.70
2022-09-24T20:23:42.584Z,13.70
2022-09-24T20:26:28.784Z,13.70
2022-09-24T20:28:55.590Z,13.70
2022-09-24T20:31:25.005Z,13.70
2022-09-24T20:33:52.729Z,13.70
2022-09-24T20:36:23.914Z,13.70
2022-09-24T20:38:51.371Z,13.60
2022-09-24T20:41:19.124Z,13.60
2022-09-24T20:43:46.227Z,13.60
2022-09-24T20:46:16.173Z,13.60
2022-09-24T20:48:42.864Z,13.60
2022-09-24T20:51:10.391Z,13.50
2022-09-24T20:53:37.331Z,13.50
2022-09-24T20:56:05.924Z,13.50
2022-09-24T20:58:33.716Z,13.50
2022-09-24T21:01:00.823Z,13.40
2022-09-24T21:03:43.296Z,13.40
2022-09-24T21:06:15.323Z,13.40
2022-09-24T21:08:45.896Z,13.40
2022-09-24T21:11:13.940Z,13.30
2022-09-24T21:13:42.013Z,13.30
2022-09-24T21:16:09.564Z,13.30
2022-09-24T21:18:40.848Z,13.40
2022-09-24T21:21:09.858Z,13.30
2022-09-24T21:23:38.015Z,13.30
2022-09-24T21:26:09.893Z,13.30
2022-09-24T21:28:37.389Z,13.30
2022-09-24T21:31:05.002Z,13.30
2022-09-24T21:33:32.396Z,13.30
2022-09-24T21:36:02.957Z,13.30
2022-09-24T21:38:29.857Z,13.30
2022-09-24T21:40:57.067Z,13.30
2022-09-24T21:43:25.223Z,13.30
2022-09-24T21:46:02.925Z,13.20
2022-09-24T21:48:30.253Z,13.20
2022-09-24T21:51:07.594Z,13.20
2022-09-24T21:53:34.435Z,13.20
2022-09-24T21:56:01.665Z,13.20
2022-09-24T21:58:29.742Z,13.20
2022-09-24T22:00:56.889Z,13.20
2022-09-24T22:03:23.880Z,13.20
2022-09-24T22:05:51.128Z,13.20
2022-09-24T22:08:21.186Z,13.20
2022-09-24T22:10:47.828Z,13.20
2022-09-24T22:13:15.028Z,13.20
2022-09-24T22:15:44.712Z,13.20
2022-09-24T22:18:11.581Z,13.20
2022-09-24T22:20:44.830Z,13.20
2022-09-24T22:23:11.598Z,13.20
2022-09-24T22:25:38.375Z,13.10
2022-09-24T22:28:05.194Z,13.10
2022-09-24T22:30:31.979Z,13.10
2022-09-24T22:32:58.751Z,13.10
2022-09-24T22:35:44.275Z,13.10
2022-09-24T22:38:10.901Z,13.10
2022-09-24T22:40:37.790Z,13.10
2022-09-24T22:43:04.529Z,13.10
2022-09-24T22:45:31.205Z,13.10
2022-09-24T22:47:59.245Z,13.10
2022-09-24T22:50:26.154Z,13.10
2022-09-24T22:52:53.220Z,13.10
2022-09-24T22:55:19.852Z,13.10
2022-09-24T22:57:46.471Z,13.10
2022-09-24T23:00:15.130Z,13.10
2022-09-24T23:02:41.898Z,13.10
2022-09-24T23:05:09.900Z,13.10
2022-09-24T23:07:36.665Z,13.10
2022-09-24T23:10:03.430Z,13.00
2022-09-24T23:12:33.240Z,13.00
2022-09-24T23:15:00.151Z,13.00
2022-09-24T23:17:27.160Z,13.00
2022-09-24T23:19:54.189Z,13.00
2022-09-24T23:22:21.563Z,13.00
2022-09-24T23:24:50.408Z,13.00
2022-09-24T23:27:18.831Z,13.00
2022-09-24T23:29:46.034Z,13.00
2022-09-24T23:32:13.013Z,13.00
2022-09-24T23:34:39.724Z,13.00
2022-09-24T23:37:06.360Z,13.00
2022-09-24T23:39:33.777Z,12.90
2022-09-24T23:42:00.566Z,12.90
2022-09-24T23:44:27.237Z,12.90
2022-09-24T23:46:53.903Z,12.90
2022-09-24T23:49:20.688Z,12.90
2022-09-24T23:51:47.370Z,12.90
2022-09-24T23:54:14.020Z,12.90
2022-09-24T23:56:40.824Z,12.90
2022-09-24T23:59:07.850Z,12.80
